Orleans, Michigan
Current Conditions -  °F | °C
As of 6:13 PM on Thursday 27 Nov 2014 (Local Time) from KY70 Reporting Station
Overcast Overcast  
Wind Chill: 13°   Ceiling: 5500
Heat Index: 25°   Visibility: 10mi
Dew Point: 16°   Wind: 13mph
Humidity: 70%   Direction: 310°NW
Pressure: 30.28"   Gusts: 17mph
Location:  43.07°N, 85.13°W
Report Text: KY70 272313Z AUTO 31011G15KT 10SM OVC055 M04/M09 A3028 RMK AO2 T10401088
Loading
Personal Weather Stations






























Interactive Weather Map New forecast layout! Learn more

10-Day Weather Forecast

Advertisements
Track Severe Weather on mobile